Time;durP1;ratioP1;P1;durP2;ratioP2;P2;SDS_P1;SDS_P2;PMS_P1;PMS_P2;Temp;Humidity;BMP_temperature;BMP_pressure;BME280_temperature;BME280_humidity;BME280_pressure;Samples;Min_cycle;Max_cycle;Signal;HPM_P1;HPM_P2
2022/10/08 00:00:44;;;;;;;11.40;5.10;;;12.80;99.90;;;;;;5018924;28;20515;-66
2022/10/08 00:03:13;;;;;;;7.53;5.30;;;12.80;99.90;;;;;;5018466;28;20524;-66
2022/10/08 00:05:40;;;;;;;7.73;5.80;;;12.70;99.90;;;;;;5018548;28;20457;-67
2022/10/08 00:08:09;;;;;;;9.37;5.97;;;12.70;99.90;;;;;;5018082;28;20948;-66
2022/10/08 00:10:37;;;;;;;6.47;5.20;;;12.70;99.90;;;;;;5018213;28;20496;-66
2022/10/08 00:13:04;;;;;;;7.80;5.40;;;12.70;99.90;;;;;;5018357;28;20489;-66
2022/10/08 00:15:36;;;;;;;8.87;5.00;;;12.70;99.90;;;;;;5018566;28;20511;-66
2022/10/08 00:18:03;;;;;;;9.10;6.70;;;12.70;99.90;;;;;;5017849;28;20455;-66
2022/10/08 00:20:30;;;;;;;11.57;6.30;;;12.60;99.90;;;;;;5017580;28;20489;-66
2022/10/08 00:22:57;;;;;;;8.47;5.70;;;12.60;99.90;;;;;;5017176;28;20527;-66
2022/10/08 00:25:25;;;;;;;9.97;5.13;;;12.60;99.90;;;;;;5017726;28;20868;-66
2022/10/08 00:27:52;;;;;;;7.40;5.50;;;12.60;99.90;;;;;;5018529;28;20525;-66
2022/10/08 00:30:19;;;;;;;5.90;5.30;;;12.60;99.90;;;;;;5017410;28;20523;-66
2022/10/08 00:32:46;;;;;;;7.10;5.90;;;12.60;99.90;;;;;;5018089;28;20460;-66
2022/10/08 00:35:13;;;;;;;8.80;5.93;;;12.60;99.90;;;;;;5017027;28;20857;-66
2022/10/08 00:37:40;;;;;;;9.07;6.00;;;12.50;99.90;;;;;;5017348;28;20659;-66
2022/10/08 00:40:07;;;;;;;6.23;5.43;;;12.50;99.90;;;;;;5017667;28;20527;-66
2022/10/08 00:42:37;;;;;;;6.40;5.70;;;12.50;99.90;;;;;;5017535;28;20473;-66
2022/10/08 00:45:05;;;;;;;7.53;6.20;;;12.50;99.90;;;;;;5018012;28;20468;-66
2022/10/08 00:47:41;;;;;;;8.30;6.10;;;12.50;99.90;;;;;;5017498;28;20481;-66
2022/10/08 00:50:17;;;;;;;7.27;5.40;;;12.40;99.90;;;;;;5017378;28;20820;-66
2022/10/08 00:52:47;;;;;;;7.30;6.33;;;12.40;99.90;;;;;;5017189;28;20639;-66
2022/10/08 00:55:16;;;;;;;9.47;5.90;;;12.40;99.90;;;;;;5017031;28;20772;-66
2022/10/08 00:57:44;;;;;;;7.50;5.70;;;12.40;99.90;;;;;;5019341;28;20508;-66
2022/10/08 01:00:15;;;;;;;6.80;4.83;;;12.40;99.90;;;;;;5017112;28;20975;-66
2022/10/08 01:02:42;;;;;;;8.50;5.90;;;12.40;99.90;;;;;;5016996;28;20445;-66
2022/10/08 01:05:11;;;;;;;7.73;5.53;;;12.40;99.90;;;;;;5016646;28;20485;-66
2022/10/08 01:07:44;;;;;;;8.13;5.60;;;12.40;99.90;;;;;;5016568;28;20457;-66
2022/10/08 01:10:20;;;;;;;9.43;6.03;;;12.40;99.90;;;;;;5016622;28;20470;-66
2022/10/08 01:13:00;;;;;;;6.47;5.70;;;12.40;99.90;;;;;;5017129;28;20441;-66
2022/10/08 01:15:33;;;;;;;9.40;5.60;;;12.30;99.90;;;;;;5016802;28;20893;-66
2022/10/08 01:18:09;;;;;;;15.80;6.23;;;12.30;99.90;;;;;;5016483;28;20889;-66
2022/10/08 01:20:51;;;;;;;11.03;6.20;;;12.30;99.90;;;;;;5016729;28;20893;-66
2022/10/08 01:23:36;;;;;;;11.00;6.00;;;12.20;99.90;;;;;;5016650;28;20445;-66
2022/10/08 01:26:24;;;;;;;7.33;5.87;;;12.20;99.90;;;;;;5016952;28;20944;-66
2022/10/08 01:29:00;;;;;;;9.00;6.10;;;12.10;99.90;;;;;;5018220;28;20461;-66
2022/10/08 01:31:32;;;;;;;7.33;6.03;;;12.20;99.90;;;;;;5015944;28;20785;-66
2022/10/08 01:34:03;;;;;;;7.80;5.70;;;12.10;99.90;;;;;;5017379;28;20445;-66
2022/10/08 01:36:37;;;;;;;9.90;6.37;;;12.10;99.90;;;;;;5016973;28;20457;-66
2022/10/08 01:39:10;;;;;;;7.37;5.67;;;12.10;99.90;;;;;;5015984;28;20495;-66
2022/10/08 01:41:38;;;;;;;7.10;6.00;;;12.10;99.90;;;;;;5017144;28;20527;-66
2022/10/08 01:44:13;;;;;;;10.60;6.00;;;12.20;99.90;;;;;;5016420;28;20659;-66
2022/10/08 01:46:43;;;;;;;9.60;6.00;;;12.10;99.90;;;;;;5015103;28;20944;-66
2022/10/08 01:49:17;;;;;;;7.00;5.60;;;12.10;99.90;;;;;;5015896;28;20503;-66
2022/10/08 01:51:51;;;;;;;9.30;6.20;;;12.10;99.90;;;;;;5015982;28;20496;-66
2022/10/08 01:54:20;;;;;;;10.23;6.20;;;12.10;99.90;;;;;;5015872;28;20519;-65
2022/10/08 01:56:49;;;;;;;11.90;7.23;;;12.10;99.90;;;;;;5015871;28;20485;-66
2022/10/08 01:59:21;;;;;;;7.37;6.40;;;12.10;99.90;;;;;;5015797;28;20495;-66
2022/10/08 02:01:54;;;;;;;9.40;6.33;;;12.10;99.90;;;;;;5016080;28;20511;-66
2022/10/08 02:04:34;;;;;;;7.97;6.23;;;12.10;99.90;;;;;;5016461;28;20445;-66
2022/10/08 02:07:03;;;;;;;8.10;6.50;;;12.10;99.90;;;;;;5016573;28;20552;-66
2022/10/08 02:09:34;;;;;;;9.10;6.03;;;12.10;99.90;;;;;;5016276;28;20453;-65
2022/10/08 02:12:01;;;;;;;8.73;6.10;;;12.10;99.90;;;;;;5016483;28;20452;-65
2022/10/08 02:14:30;;;;;;;6.53;5.60;;;12.10;99.90;;;;;;5016031;28;20453;-66
2022/10/08 02:17:07;;;;;;;9.30;6.50;;;12.10;99.90;;;;;;5015691;28;20465;-66
2022/10/08 02:19:44;;;;;;;11.47;6.63;;;12.10;99.90;;;;;;5015887;28;20501;-66
2022/10/08 02:22:13;;;;;;;9.17;6.37;;;12.10;99.90;;;;;;5015754;28;20445;-66
2022/10/08 02:24:45;;;;;;;11.53;6.50;;;12.10;99.90;;;;;;5015501;28;20467;-66
2022/10/08 02:27:13;;;;;;;7.53;6.10;;;12.10;99.90;;;;;;5015870;28;20495;-66
2022/10/08 02:29:45;;;;;;;9.23;8.20;;;12.00;99.90;;;;;;5015555;28;20969;-67
2022/10/08 02:32:19;;;;;;;7.40;6.63;;;12.00;99.90;;;;;;5016547;28;20532;-66
2022/10/08 02:34:50;;;;;;;13.23;6.40;;;12.00;99.90;;;;;;5016529;28;20449;-66
2022/10/08 02:37:21;;;;;;;7.10;6.17;;;12.00;99.90;;;;;;5017494;28;20472;-66
2022/10/08 02:39:53;;;;;;;8.03;6.20;;;12.10;99.90;;;;;;5016376;28;20472;-67
2022/10/08 02:42:24;;;;;;;11.00;6.53;;;12.10;99.90;;;;;;5017769;28;20487;-66
2022/10/08 02:44:57;;;;;;;9.00;6.83;;;12.10;99.90;;;;;;5020733;28;20444;-66
2022/10/08 02:47:28;;;;;;;8.07;5.80;;;12.10;99.90;;;;;;5019946;28;20499;-67
2022/10/08 02:50:01;;;;;;;9.80;7.30;;;12.10;99.90;;;;;;5020305;28;20469;-66
2022/10/08 02:52:35;;;;;;;14.03;7.40;;;12.10;99.90;;;;;;5020179;28;20503;-67
2022/10/08 02:55:07;;;;;;;8.87;6.17;;;12.10;99.90;;;;;;5019730;28;20441;-67
2022/10/08 02:57:41;;;;;;;7.57;5.77;;;12.10;99.90;;;;;;5000130;28;20917;-66
2022/10/08 03:00:11;;;;;;;10.40;7.00;;;12.10;99.90;;;;;;5000313;28;20470;-67
2022/10/08 03:02:43;;;;;;;8.60;6.40;;;12.10;99.90;;;;;;4999865;28;20806;-66
2022/10/08 03:05:16;;;;;;;6.63;5.70;;;12.10;99.90;;;;;;5000290;28;20442;-67
2022/10/08 03:07:45;;;;;;;7.73;6.13;;;12.10;99.90;;;;;;5000003;28;20435;-66
2022/10/08 03:10:12;;;;;;;7.53;6.33;;;12.10;99.90;;;;;;4999875;28;20457;-66
2022/10/08 03:12:39;;;;;;;8.73;6.40;;;12.10;99.90;;;;;;4999899;28;20476;-66
2022/10/08 03:15:11;;;;;;;11.03;6.30;;;12.10;99.90;;;;;;5000266;28;20489;-67
2022/10/08 03:17:41;;;;;;;10.00;6.60;;;12.00;99.90;;;;;;4999864;28;20478;-67
2022/10/08 03:20:11;;;;;;;7.33;6.10;;;12.00;99.90;;;;;;5000003;28;20466;-66
2022/10/08 03:22:38;;;;;;;10.33;6.20;;;12.00;99.90;;;;;;4999574;28;20512;-66
2022/10/08 03:25:06;;;;;;;8.70;6.80;;;12.00;99.90;;;;;;4999335;28;20503;-66
2022/10/08 03:27:34;;;;;;;8.93;6.67;;;12.00;99.90;;;;;;4999227;28;20561;-67
2022/10/08 03:30:01;;;;;;;9.20;7.10;;;12.00;99.90;;;;;;4999720;28;20515;-67
2022/10/08 03:32:29;;;;;;;11.10;6.27;;;11.90;99.90;;;;;;4999929;28;20497;-66
2022/10/08 03:34:56;;;;;;;9.93;6.57;;;12.00;99.90;;;;;;4999866;28;20453;-67
2022/10/08 03:37:23;;;;;;;8.17;6.30;;;11.90;99.90;;;;;;4999296;28;20485;-66
2022/10/08 03:39:50;;;;;;;8.90;6.03;;;11.90;99.90;;;;;;4999451;28;20551;-67
2022/10/08 03:42:17;;;;;;;12.17;6.97;;;11.90;99.90;;;;;;5000112;28;20457;-66
2022/10/08 03:44:44;;;;;;;6.40;5.73;;;11.90;99.90;;;;;;4999316;28;20488;-67
2022/10/08 03:47:11;;;;;;;10.13;6.20;;;11.90;99.90;;;;;;4999541;28;20945;-67
2022/10/08 03:49:40;;;;;;;9.93;6.13;;;11.90;99.90;;;;;;4999401;28;20465;-66
2022/10/08 03:52:07;;;;;;;8.00;6.10;;;11.90;99.90;;;;;;4999711;28;20462;-66
2022/10/08 03:54:34;;;;;;;8.07;5.73;;;12.00;99.90;;;;;;4998385;28;20843;-67
2022/10/08 03:57:01;;;;;;;8.47;5.77;;;12.00;99.90;;;;;;5014441;28;20488;-66
2022/10/08 03:59:28;;;;;;;10.40;6.70;;;12.00;99.90;;;;;;5019068;28;20838;-66
2022/10/08 04:01:55;;;;;;;7.37;5.40;;;12.00;99.90;;;;;;5018636;28;20461;-66
2022/10/08 04:04:22;;;;;;;7.37;6.00;;;12.10;99.90;;;;;;5019459;28;20485;-67
2022/10/08 04:06:50;;;;;;;7.50;5.43;;;12.10;99.90;;;;;;5018694;28;20461;-66
2022/10/08 04:09:17;;;;;;;7.57;5.83;;;12.10;99.90;;;;;;5018721;28;20465;-66
2022/10/08 04:11:44;;;;;;;11.90;5.73;;;12.10;99.90;;;;;;5019039;28;20481;-66
2022/10/08 04:14:11;;;;;;;6.03;5.30;;;12.10;99.90;;;;;;5018211;28;20480;-67
2022/10/08 04:16:38;;;;;;;6.70;5.20;;;12.20;99.90;;;;;;5018699;28;20527;-66
2022/10/08 04:19:05;;;;;;;8.27;5.60;;;12.20;99.90;;;;;;5019002;28;20465;-66
2022/10/08 04:21:32;;;;;;;7.00;6.00;;;12.20;99.90;;;;;;5018865;28;20480;-67
2022/10/08 04:24:00;;;;;;;6.80;5.43;;;12.20;99.90;;;;;;5019247;28;20488;-66
2022/10/08 04:26:27;;;;;;;8.67;6.47;;;12.20;99.90;;;;;;5019325;28;20457;-66
2022/10/08 04:28:54;;;;;;;8.70;5.43;;;12.20;99.90;;;;;;5019895;28;20503;-66
2022/10/08 04:31:22;;;;;;;8.80;6.13;;;12.20;99.90;;;;;;5018822;28;20839;-66
2022/10/08 04:33:50;;;;;;;7.23;5.20;;;12.20;99.90;;;;;;5017831;28;20460;-66
2022/10/08 04:36:19;;;;;;;7.20;4.90;;;12.20;99.90;;;;;;5018094;28;20554;-67
2022/10/08 04:38:46;;;;;;;7.47;5.50;;;12.20;99.90;;;;;;5017291;28;20795;-67
2022/10/08 04:41:16;;;;;;;5.80;5.20;;;12.20;99.90;;;;;;5016579;28;20531;-67
2022/10/08 04:43:44;;;;;;;8.00;5.60;;;12.20;99.90;;;;;;5016940;28;20546;-67
2022/10/08 04:46:13;;;;;;;10.23;5.90;;;12.20;99.90;;;;;;5017699;28;20505;-66
2022/10/08 04:48:45;;;;;;;6.93;5.57;;;12.20;99.90;;;;;;5017409;28;20464;-66
2022/10/08 04:51:12;;;;;;;8.23;4.73;;;12.20;99.90;;;;;;5016713;28;20533;-66
2022/10/08 04:53:39;;;;;;;7.10;6.40;;;12.20;99.90;;;;;;5017202;28;20493;-66
2022/10/08 04:56:11;;;;;;;9.57;5.50;;;12.10;99.90;;;;;;5016506;28;20527;-65
2022/10/08 04:58:40;;;;;;;5.67;4.83;;;12.20;99.90;;;;;;5016759;28;20461;-66
2022/10/08 05:01:09;;;;;;;6.13;4.93;;;12.20;99.90;;;;;;5016829;28;20568;-66
2022/10/08 05:03:37;;;;;;;8.83;5.33;;;12.10;99.90;;;;;;5017819;28;20465;-66
2022/10/08 05:06:05;;;;;;;7.50;4.83;;;12.10;99.90;;;;;;5018166;28;20547;-66
2022/10/08 05:08:32;;;;;;;9.37;5.83;;;12.10;99.90;;;;;;5018622;28;20771;-66
2022/10/08 05:10:59;;;;;;;6.90;4.90;;;12.10;99.90;;;;;;5018227;28;20488;-67
2022/10/08 05:13:25;;;;;;;6.43;5.40;;;12.10;99.90;;;;;;5018159;28;20452;-66
2022/10/08 05:15:54;;;;;;;8.70;5.40;;;12.00;99.90;;;;;;5017931;28;20527;-66
2022/10/08 05:18:21;;;;;;;6.83;5.53;;;12.00;99.90;;;;;;5017603;28;20484;-66
2022/10/08 05:20:48;;;;;;;9.33;5.77;;;12.00;99.90;;;;;;5017729;28;20512;-66
2022/10/08 05:23:15;;;;;;;10.43;6.23;;;12.00;99.90;;;;;;5017868;28;20453;-66
2022/10/08 05:25:42;;;;;;;10.63;4.90;;;12.10;99.90;;;;;;5019253;28;20512;-67
2022/10/08 05:28:09;;;;;;;6.97;5.20;;;12.10;99.90;;;;;;5017848;28;20461;-67
2022/10/08 05:30:36;;;;;;;7.43;5.70;;;12.10;99.90;;;;;;5017605;28;20495;-66
2022/10/08 05:33:04;;;;;;;10.97;5.43;;;12.10;99.90;;;;;;5017859;28;20873;-67
2022/10/08 05:35:31;;;;;;;7.70;5.50;;;12.10;99.90;;;;;;5017157;28;20483;-66
2022/10/08 05:37:58;;;;;;;7.77;5.33;;;12.10;99.90;;;;;;5017257;28;20548;-66
2022/10/08 05:40:25;;;;;;;9.57;5.53;;;12.20;99.90;;;;;;5016615;28;20477;-66
2022/10/08 05:42:53;;;;;;;7.70;6.07;;;12.10;99.90;;;;;;5017375;28;20484;-66
2022/10/08 05:45:20;;;;;;;7.60;5.40;;;12.10;99.90;;;;;;5016771;28;20492;-67
2022/10/08 05:47:48;;;;;;;8.10;5.20;;;12.10;99.90;;;;;;5016893;28;20457;-66
2022/10/08 05:50:16;;;;;;;7.53;5.33;;;12.20;99.90;;;;;;5017893;28;20453;-67
2022/10/08 05:52:43;;;;;;;7.80;5.23;;;12.10;99.90;;;;;;5017491;28;20461;-67
2022/10/08 05:55:10;;;;;;;9.60;5.93;;;12.20;99.90;;;;;;5018105;28;20543;-66
2022/10/08 05:57:37;;;;;;;8.87;5.53;;;12.20;99.90;;;;;;5017582;28;20457;-65
2022/10/08 06:00:05;;;;;;;10.07;5.47;;;12.20;99.90;;;;;;5018156;28;20766;-67
2022/10/08 06:02:32;;;;;;;10.50;5.53;;;12.20;99.90;;;;;;5016988;28;20523;-67
2022/10/08 06:04:58;;;;;;;9.57;5.20;;;12.20;99.90;;;;;;5017361;28;21000;-66
2022/10/08 06:07:27;;;;;;;14.77;5.40;;;12.20;99.90;;;;;;5017150;28;20456;-67
2022/10/08 06:09:53;;;;;;;14.10;5.93;;;12.20;99.90;;;;;;5017058;28;20461;-67
2022/10/08 06:12:20;;;;;;;7.73;5.10;;;12.30;99.90;;;;;;5017072;28;20841;-67
2022/10/08 06:14:47;;;;;;;7.67;5.33;;;12.30;99.90;;;;;;5017380;28;20468;-68
2022/10/08 06:17:14;;;;;;;8.57;5.93;;;12.30;99.90;;;;;;5016784;28;20471;-68
2022/10/08 06:19:41;;;;;;;7.53;5.03;;;12.30;99.90;;;;;;5018943;28;20559;-67
2022/10/08 06:22:08;;;;;;;5.90;4.90;;;12.30;99.90;;;;;;5018923;28;20481;-67
2022/10/08 06:24:36;;;;;;;9.73;5.33;;;12.40;99.90;;;;;;5018961;28;20452;-67
2022/10/08 06:27:03;;;;;;;8.73;5.50;;;12.40;99.90;;;;;;5018917;28;20527;-67
2022/10/08 06:29:30;;;;;;;6.97;5.13;;;12.40;99.90;;;;;;5019364;28;20492;-68
2022/10/08 06:31:57;;;;;;;7.37;4.97;;;12.40;99.90;;;;;;5019488;28;20503;-67
2022/10/08 06:34:24;;;;;;;9.73;5.50;;;12.40;99.90;;;;;;5019141;28;20979;-68
2022/10/08 06:36:51;;;;;;;11.17;5.77;;;12.40;99.90;;;;;;5019406;28;20460;-68
2022/10/08 06:39:18;;;;;;;6.10;5.00;;;12.40;99.90;;;;;;5020045;28;20492;-69
2022/10/08 06:41:46;;;;;;;11.20;5.60;;;12.40;99.90;;;;;;5019394;28;20486;-69
2022/10/08 06:44:14;;;;;;;7.83;5.20;;;12.40;99.90;;;;;;5019599;28;20964;-69
2022/10/08 06:46:41;;;;;;;9.30;4.80;;;12.50;99.90;;;;;;5020047;28;20917;-69
2022/10/08 06:49:10;;;;;;;12.70;5.47;;;12.50;99.90;;;;;;5018797;28;20983;-69
2022/10/08 06:51:37;;;;;;;6.70;5.00;;;12.50;99.90;;;;;;5019454;28;20548;-69
2022/10/08 06:54:05;;;;;;;8.43;5.23;;;12.50;99.90;;;;;;5019424;28;20833;-68
2022/10/08 06:56:32;;;;;;;8.37;5.03;;;12.50;99.90;;;;;;5018867;28;20568;-68
2022/10/08 06:59:00;;;;;;;5.90;4.53;;;12.50;99.90;;;;;;5020350;28;20441;-68
2022/10/08 07:01:28;;;;;;;10.50;5.23;;;12.60;99.90;;;;;;5019679;28;20538;-68
2022/10/08 07:03:56;;;;;;;9.30;4.77;;;12.70;99.90;;;;;;5019159;28;20849;-69
2022/10/08 07:06:24;;;;;;;5.90;4.67;;;12.70;99.90;;;;;;5019384;28;20504;-67
2022/10/08 07:08:52;;;;;;;8.73;4.80;;;12.70;99.90;;;;;;5018724;28;20465;-67
2022/10/08 07:11:19;;;;;;;7.83;4.97;;;12.80;99.90;;;;;;5018580;28;20453;-68
2022/10/08 07:13:46;;;;;;;8.73;4.70;;;12.80;99.90;;;;;;5018659;28;20826;-68
2022/10/08 07:16:17;;;;;;;12.87;4.87;;;12.80;99.90;;;;;;5018157;28;20933;-67
2022/10/08 07:18:45;;;;;;;7.00;3.90;;;12.80;99.90;;;;;;5018638;28;20441;-68
2022/10/08 07:21:13;;;;;;;8.83;5.00;;;12.90;99.90;;;;;;5019787;28;20952;-68
2022/10/08 07:23:40;;;;;;;7.07;4.40;;;12.90;99.90;;;;;;5021054;28;20464;-68
2022/10/08 07:26:09;;;;;;;8.67;4.60;;;12.90;99.90;;;;;;5019324;28;20464;-68
2022/10/08 07:28:38;;;;;;;7.90;4.77;;;13.00;99.90;;;;;;5017633;28;20467;-68
2022/10/08 07:31:06;;;;;;;9.80;5.30;;;13.00;99.90;;;;;;5019049;28;20500;-68
2022/10/08 07:33:35;;;;;;;9.23;4.40;;;13.00;99.90;;;;;;5018491;28;20549;-68
2022/10/08 07:36:09;;;;;;;9.87;4.87;;;13.10;99.90;;;;;;5018077;28;20503;-68
2022/10/08 07:38:36;;;;;;;6.73;3.97;;;13.20;99.90;;;;;;5018722;28;20456;-68
2022/10/08 07:41:03;;;;;;;10.57;4.40;;;13.30;99.90;;;;;;5018573;28;20876;-68
2022/10/08 07:43:30;;;;;;;7.30;4.00;;;13.40;99.90;;;;;;5018654;28;20527;-67
2022/10/08 07:45:57;;;;;;;5.07;4.07;;;13.40;99.90;;;;;;5018577;28;20534;-67
2022/10/08 07:48:24;;;;;;;5.17;3.70;;;13.40;99.90;;;;;;5019262;28;20489;-68
2022/10/08 07:50:53;;;;;;;10.50;4.53;;;13.40;99.90;;;;;;5018798;28;20519;-68
2022/10/08 07:53:19;;;;;;;6.50;3.97;;;13.50;99.90;;;;;;5022108;28;20811;-69
2022/10/08 07:55:46;;;;;;;5.27;3.70;;;13.50;99.90;;;;;;5020796;28;20515;-68
2022/10/08 07:58:14;;;;;;;5.90;3.70;;;13.60;99.90;;;;;;5021518;28;20449;-69
2022/10/08 08:00:41;;;;;;;8.90;3.80;;;13.70;99.90;;;;;;5022390;28;20467;-68
2022/10/08 08:03:13;;;;;;;12.20;3.70;;;13.80;99.90;;;;;;5022296;28;20521;-67
2022/10/08 08:05:40;;;;;;;7.70;3.50;;;13.90;99.90;;;;;;5020202;28;20496;-67
2022/10/08 08:08:10;;;;;;;7.30;3.77;;;14.00;99.90;;;;;;5021523;28;20916;-69
2022/10/08 08:10:36;;;;;;;6.23;3.60;;;14.10;99.90;;;;;;5019327;28;20516;-67
2022/10/08 08:13:03;;;;;;;8.77;3.43;;;14.10;99.90;;;;;;5019602;28;20921;-68
2022/10/08 08:15:30;;;;;;;7.03;3.20;;;14.20;99.90;;;;;;5022232;28;20461;-67
2022/10/08 08:17:57;;;;;;;8.27;3.90;;;14.30;99.90;;;;;;5022755;28;20477;-68
2022/10/08 08:20:24;;;;;;;15.87;4.43;;;14.40;99.90;;;;;;5023151;28;20504;-68
2022/10/08 08:22:51;;;;;;;5.43;3.17;;;14.50;99.90;;;;;;5022271;28;20516;-68
2022/10/08 08:25:20;;;;;;;7.80;2.80;;;14.50;99.90;;;;;;5023499;28;20543;-68
2022/10/08 08:27:46;;;;;;;5.13;2.60;;;14.50;99.90;;;;;;5023769;28;20523;-69
2022/10/08 08:30:14;;;;;;;7.13;2.90;;;14.60;99.90;;;;;;5023741;28;20885;-68
2022/10/08 08:32:41;;;;;;;4.67;3.00;;;14.60;99.90;;;;;;5024077;28;20449;-68
2022/10/08 08:35:08;;;;;;;12.17;3.00;;;14.70;99.90;;;;;;5024698;28;20500;-68
2022/10/08 08:37:35;;;;;;;11.60;3.13;;;14.70;99.90;;;;;;5022810;28;20906;-68
2022/10/08 08:40:02;;;;;;;8.43;2.70;;;14.70;99.90;;;;;;5022127;28;20485;-68
2022/10/08 08:42:49;;;;;;;8.70;2.80;;;14.70;99.90;;;;;;5023081;28;20563;-68
2022/10/08 08:45:24;;;;;;;10.03;3.53;;;14.80;99.90;;;;;;5021536;28;20507;-68
2022/10/08 08:48:04;;;;;;;11.40;3.20;;;14.80;99.90;;;;;;5023694;28;20441;-69
2022/10/08 08:50:34;;;;;;;10.97;3.27;;;14.90;99.90;;;;;;5025482;28;20456;-69
2022/10/08 08:53:02;;;;;;;10.57;3.30;;;14.90;99.90;;;;;;5023002;28;20552;-67
2022/10/08 08:55:35;;;;;;;12.50;5.10;;;15.10;99.90;;;;;;5022324;28;20497;-68
2022/10/08 08:58:12;;;;;;;8.77;3.53;;;15.10;99.90;;;;;;5022298;28;20476;-68
2022/10/08 09:00:42;;;;;;;7.63;3.37;;;15.20;99.90;;;;;;5022252;28;20481;-68
2022/10/08 09:03:19;;;;;;;10.90;3.60;;;15.20;99.90;;;;;;5021948;28;20481;-67
2022/10/08 09:05:51;;;;;;;13.20;3.97;;;15.30;99.90;;;;;;5022281;28;20449;-67
2022/10/08 09:08:22;;;;;;;7.83;3.50;;;15.20;99.90;;;;;;5022908;28;20500;-68
2022/10/08 09:10:54;;;;;;;11.90;4.23;;;15.20;99.90;;;;;;5023334;28;20463;-69
2022/10/08 09:13:25;;;;;;;8.07;4.00;;;15.30;99.90;;;;;;5021239;28;20527;-68
2022/10/08 09:15:54;;;;;;;11.80;4.60;;;15.30;99.90;;;;;;5022743;28;20453;-68
2022/10/08 09:18:22;;;;;;;8.50;4.10;;;15.40;99.90;;;;;;5024076;28;20489;-68
2022/10/08 09:20:50;;;;;;;9.30;4.50;;;15.50;99.90;;;;;;5023165;28;20453;-67
2022/10/08 09:23:20;;;;;;;15.17;4.70;;;15.60;99.90;;;;;;5024258;28;20492;-66
2022/10/08 09:25:52;;;;;;;10.40;4.93;;;15.60;99.90;;;;;;5023885;28;20480;-68
2022/10/08 09:28:44;;;;;;;8.70;4.53;;;15.60;99.90;;;;;;5023413;28;20528;-68
2022/10/08 09:31:21;;;;;;;12.80;4.00;;;15.70;99.90;;;;;;5023436;28;20449;-68
2022/10/08 09:33:55;;;;;;;9.63;4.43;;;15.80;99.90;;;;;;5021500;28;20445;-69
2022/10/08 09:36:31;;;;;;;6.70;3.40;;;16.00;99.90;;;;;;5020977;28;20453;-69
2022/10/08 09:38:59;;;;;;;15.20;4.80;;;16.00;99.90;;;;;;5022667;28;20456;-68
2022/10/08 09:41:29;;;;;;;8.87;4.27;;;15.90;99.90;;;;;;5022289;28;20504;-69
2022/10/08 09:44:13;;;;;;;10.67;3.90;;;15.90;99.90;;;;;;5019515;28;20445;-67
2022/10/08 09:46:40;;;;;;;7.53;4.03;;;15.90;99.90;;;;;;5018323;28;20441;-72
2022/10/08 09:49:31;;;;;;;10.00;4.80;;;16.00;99.90;;;;;;5018762;28;20519;-70
2022/10/08 09:52:01;;;;;;;12.70;4.30;;;16.00;99.90;;;;;;5016468;28;20447;-70
2022/10/08 09:54:32;;;;;;;14.97;5.20;;;16.10;99.90;;;;;;5017666;28;20473;-70
2022/10/08 09:57:01;;;;;;;9.00;4.63;;;16.10;99.90;;;;;;5017306;28;20520;-71
2022/10/08 09:59:31;;;;;;;10.53;4.33;;;16.00;99.90;;;;;;5017066;28;20538;-72
2022/10/08 10:01:59;;;;;;;4.80;3.40;;;16.00;99.90;;;;;;5017813;28;20508;-70
2022/10/08 10:04:33;;;;;;;8.80;4.07;;;16.00;99.90;;;;;;5016957;28;20457;-72
2022/10/08 10:07:01;;;;;;;5.90;3.50;;;15.90;99.90;;;;;;5018124;28;20812;-70
2022/10/08 10:09:40;;;;;;;10.97;4.60;;;15.90;99.90;;;;;;5018625;28;20503;-71
2022/10/08 10:12:18;;;;;;;6.60;3.93;;;15.80;99.90;;;;;;5017221;28;20468;-71
2022/10/08 10:14:49;;;;;;;8.03;3.93;;;15.80;99.90;;;;;;5020584;28;20519;-72
2022/10/08 10:17:25;;;;;;;9.00;5.07;;;15.90;99.90;;;;;;5021987;28;20445;-71
2022/10/08 10:19:55;;;;;;;7.83;3.93;;;15.90;99.90;;;;;;5022264;28;20445;-71
2022/10/08 10:22:27;;;;;;;7.20;3.80;;;15.90;99.90;;;;;;5020657;28;20829;-71
2022/10/08 10:25:01;;;;;;;9.77;3.73;;;16.00;99.90;;;;;;5022208;28;20514;-70
2022/10/08 10:27:34;;;;;;;6.97;3.83;;;15.90;99.90;;;;;;5024374;28;20441;-71
2022/10/08 10:30:14;;;;;;;10.40;4.03;;;15.90;99.90;;;;;;5025855;28;20453;-71
2022/10/08 10:32:47;;;;;;;11.50;4.30;;;15.90;99.90;;;;;;5029236;28;20958;-71
2022/10/08 10:35:22;;;;;;;7.87;3.73;;;15.90;99.90;;;;;;5027591;28;20434;-67
2022/10/08 10:37:54;;;;;;;5.70;3.87;;;15.80;99.90;;;;;;5024298;28;20469;-68
2022/10/08 10:40:40;;;;;;;8.90;3.73;;;15.80;99.90;;;;;;5023284;28;20442;-67
2022/10/08 10:43:31;;;;;;;8.70;3.67;;;15.80;99.90;;;;;;5023154;28;20469;-68
2022/10/08 10:46:06;;;;;;;8.57;3.70;;;15.80;99.90;;;;;;5022167;28;20441;-68
2022/10/08 10:48:33;;;;;;;9.57;4.30;;;15.90;99.90;;;;;;5020883;28;20477;-68
2022/10/08 10:51:22;;;;;;;7.50;3.50;;;15.90;99.90;;;;;;5022856;28;20461;-67
2022/10/08 10:54:05;;;;;;;5.40;3.30;;;15.90;99.90;;;;;;5021593;28;20438;-67
2022/10/08 10:56:37;;;;;;;6.57;3.50;;;15.80;99.90;;;;;;5023923;28;20477;-67
2022/10/08 10:59:28;;;;;;;6.93;4.27;;;15.70;99.90;;;;;;5023419;28;20468;-67
2022/10/08 11:02:02;;;;;;;6.40;4.10;;;15.60;99.90;;;;;;5022952;28;20469;-67
2022/10/08 11:04:44;;;;;;;8.73;3.40;;;15.50;99.90;;;;;;5026223;28;20440;-68
2022/10/08 11:07:31;;;;;;;5.50;3.70;;;15.50;99.90;;;;;;5027403;28;20952;-68
2022/10/08 11:10:05;;;;;;;8.23;3.90;;;15.50;99.90;;;;;;5024550;28;20515;-68
2022/10/08 11:12:42;;;;;;;9.90;3.50;;;15.40;99.90;;;;;;5027001;28;20441;-68
2022/10/08 11:15:21;;;;;;;7.10;3.80;;;15.30;99.90;;;;;;5026963;28;20481;-69
2022/10/08 11:18:06;;;;;;;6.20;3.00;;;15.30;99.90;;;;;;5023898;28;20476;-68
2022/10/08 11:20:53;;;;;;;10.13;3.80;;;15.30;99.90;;;;;;5026560;28;20457;-69
2022/10/08 11:23:33;;;;;;;5.57;3.67;;;15.30;99.90;;;;;;5024035;28;20473;-67
2022/10/08 11:26:06;;;;;;;12.53;4.00;;;15.30;99.90;;;;;;5023828;28;20492;-67
2022/10/08 11:28:44;;;;;;;8.83;3.83;;;15.30;99.90;;;;;;5022176;28;20464;-68
2022/10/08 11:31:17;;;;;;;10.33;4.87;;;15.30;99.90;;;;;;5026858;28;20461;-68
2022/10/08 11:33:47;;;;;;;7.73;4.10;;;15.20;99.90;;;;;;5027483;28;20822;-68
2022/10/08 11:36:23;;;;;;;7.90;4.30;;;15.20;99.90;;;;;;5026122;28;20860;-68
2022/10/08 11:38:56;;;;;;;9.37;4.20;;;15.20;99.90;;;;;;5027023;28;20445;-68
2022/10/08 11:41:30;;;;;;;6.83;3.90;;;15.10;99.90;;;;;;5026500;28;20456;-68
2022/10/08 11:44:00;;;;;;;10.90;4.57;;;15.00;99.90;;;;;;5024986;28;20816;-68
2022/10/08 11:46:29;;;;;;;7.97;3.90;;;15.10;99.90;;;;;;5024506;28;20464;-67
2022/10/08 11:48:59;;;;;;;7.60;4.53;;;15.10;99.90;;;;;;5024814;28;20453;-68
2022/10/08 11:51:38;;;;;;;10.97;5.40;;;15.10;99.90;;;;;;5023140;28;20512;-68
2022/10/08 11:54:12;;;;;;;7.47;4.87;;;15.10;99.90;;;;;;5022547;28;20818;-68
2022/10/08 11:56:41;;;;;;;8.97;5.00;;;15.00;99.90;;;;;;5023641;28;20497;-68
2022/10/08 11:59:29;;;;;;;10.33;4.90;;;15.00;99.90;;;;;;5019917;28;20492;-68
2022/10/08 12:01:59;;;;;;;7.70;4.47;;;15.00;99.90;;;;;;5020859;28;20488;-68
2022/10/08 12:04:33;;;;;;;7.43;4.37;;;15.00;99.90;;;;;;5020881;28;20526;-68
2022/10/08 12:07:19;;;;;;;7.07;5.20;;;15.10;99.90;;;;;;5020913;28;20773;-68
2022/10/08 12:10:21;;;;;;;10.00;5.13;;;15.10;99.90;;;;;;5020600;28;20477;-68
2022/10/08 12:13:25;;;;;;;7.10;4.40;;;15.10;99.90;;;;;;5020290;28;20480;-68
2022/10/08 12:16:05;;;;;;;9.77;5.23;;;15.00;99.90;;;;;;5019532;28;20464;-68
2022/10/08 12:18:50;;;;;;;8.13;4.80;;;15.00;99.90;;;;;;5018833;28;20441;-68
2022/10/08 12:21:50;;;;;;;8.23;4.47;;;15.10;99.90;;;;;;5019066;28;20546;-68
2022/10/08 12:24:50;;;;;;;8.83;4.27;;;15.20;99.90;;;;;;5008111;28;20960;-68
2022/10/08 12:27:29;;;;;;;6.27;3.70;;;15.30;99.90;;;;;;5015092;28;20485;-69
2022/10/08 12:29:58;;;;;;;6.80;4.43;;;15.50;99.90;;;;;;5019435;28;20779;-68
2022/10/08 12:32:27;;;;;;;8.70;3.73;;;15.70;99.90;;;;;;5018909;28;20481;-68
2022/10/08 12:34:54;;;;;;;7.47;4.27;;;15.70;99.90;;;;;;5018667;28;20453;-68
2022/10/08 12:37:44;;;;;;;10.00;4.80;;;15.80;99.90;;;;;;5021475;28;20496;-68
2022/10/08 12:40:24;;;;;;;8.53;4.30;;;15.90;99.90;;;;;;5023082;28;20512;-68
2022/10/08 12:42:58;;;;;;;7.53;4.43;;;15.70;99.90;;;;;;5018486;28;20473;-68
2022/10/08 12:45:28;;;;;;;8.97;3.73;;;15.70;99.90;;;;;;5018110;28;20433;-68
2022/10/08 12:48:03;;;;;;;14.27;4.73;;;15.70;99.90;;;;;;5018983;28;20502;-69
2022/10/08 12:50:39;;;;;;;7.13;4.17;;;15.70;99.90;;;;;;5017907;28;20862;-67
2022/10/08 12:53:08;;;;;;;9.73;4.57;;;15.60;99.90;;;;;;5017577;28;20535;-67
2022/10/08 12:55:47;;;;;;;8.67;4.43;;;15.60;99.90;;;;;;5017356;28;20485;-68
2022/10/08 12:58:21;;;;;;;4.97;3.30;;;15.70;99.90;;;;;;5021307;28;20441;-68
2022/10/08 13:00:53;;;;;;;5.77;3.00;;;16.00;99.90;;;;;;5020399;28;20445;-70
2022/10/08 13:03:20;;;;;;;6.77;3.57;;;16.10;99.90;;;;;;5017763;28;20539;-67
2022/10/08 13:05:49;;;;;;;5.57;2.90;;;16.20;99.90;;;;;;5019109;28;20496;-68